Time;durP1;ratioP1;P1;durP2;ratioP2;P2;SDS_P1;SDS_P2;PMS_P1;PMS_P2;Temp;Humidity;BMP_temperature;BMP_pressure;BME280_temperature;BME280_humidity;BME280_pressure;Samples;Min_cycle;Max_cycle;Signal;HPM_P1;HPM_P2
2023/01/27 00:01:29;;;;;;;18.08;13.20;;;4.10;99.90;;;;;;5011955;28;20125;-74
2023/01/27 00:03:54;;;;;;;15.68;11.57;;;4.10;99.90;;;;;;5013886;28;20125;-75
2023/01/27 00:06:20;;;;;;;18.67;12.57;;;4.00;99.90;;;;;;5013973;28;20432;-74
2023/01/27 00:08:46;;;;;;;16.23;12.38;;;4.10;99.90;;;;;;5013778;28;20080;-75
2023/01/27 00:13:55;;;;;;;17.13;12.90;;;4.00;99.90;;;;;;5011040;28;20129;-75
2023/01/27 00:16:21;;;;;;;16.20;12.70;;;3.90;99.90;;;;;;5020894;28;20124;-75
2023/01/27 00:18:46;;;;;;;17.55;13.05;;;3.90;99.90;;;;;;5029467;28;20124;-74
2023/01/27 00:26:40;;;;;;;17.45;13.18;;;3.90;99.90;;;;;;5017294;28;20046;-75
2023/01/27 00:29:06;;;;;;;16.83;13.48;;;3.90;99.90;;;;;;5013396;28;20231;-74
2023/01/27 00:34:15;;;;;;;20.48;14.90;;;3.90;99.90;;;;;;4993855;28;20566;-74
2023/01/27 00:36:41;;;;;;;18.83;14.75;;;3.90;99.90;;;;;;4993829;28;20042;-74
2023/01/27 00:39:08;;;;;;;18.75;15.50;;;3.90;99.90;;;;;;5001558;28;20042;-74
2023/01/27 00:41:34;;;;;;;17.10;15.15;;;3.90;99.90;;;;;;5016437;28;20037;-74
2023/01/27 00:44:00;;;;;;;19.30;15.15;;;3.90;99.90;;;;;;5013034;28;20042;-74
2023/01/27 00:46:26;;;;;;;18.05;15.60;;;3.90;99.90;;;;;;5013330;28;20049;-74
2023/01/27 00:48:52;;;;;;;18.67;14.88;;;3.90;99.90;;;;;;5013295;28;20037;-74
2023/01/27 00:51:18;;;;;;;18.38;15.10;;;3.90;99.90;;;;;;5010438;28;20030;-74
2023/01/27 00:53:44;;;;;;;19.15;16.00;;;3.90;99.90;;;;;;5016337;28;20037;-74
2023/01/27 00:56:10;;;;;;;20.20;16.02;;;3.90;99.90;;;;;;5012987;28;20492;-74
2023/01/27 00:58:36;;;;;;;19.40;15.45;;;3.90;99.90;;;;;;5018835;28;20043;-74
2023/01/27 01:01:04;;;;;;;19.48;15.82;;;3.90;99.90;;;;;;5012888;28;20129;-74
2023/01/27 01:03:32;;;;;;;19.15;16.63;;;3.90;99.90;;;;;;5013217;28;20048;-75
2023/01/27 01:05:59;;;;;;;19.15;15.45;;;3.90;99.90;;;;;;5020255;28;20046;-75
2023/01/27 01:08:25;;;;;;;17.92;15.10;;;3.90;99.90;;;;;;5024849;28;20045;-74
2023/01/27 01:10:50;;;;;;;16.13;14.43;;;3.90;99.90;;;;;;5011224;28;20042;-75
2023/01/27 01:13:16;;;;;;;16.55;14.15;;;3.90;99.90;;;;;;5012702;28;20045;-74
2023/01/27 01:15:42;;;;;;;16.60;14.52;;;4.00;99.90;;;;;;5012820;28;20045;-74
2023/01/27 01:18:09;;;;;;;15.35;13.48;;;4.00;99.90;;;;;;5010425;28;20079;-74
2023/01/27 01:20:37;;;;;;;15.13;13.55;;;4.00;99.90;;;;;;5011536;28;20041;-74
2023/01/27 01:23:04;;;;;;;14.73;13.23;;;4.00;99.90;;;;;;5012556;28;20137;-74
2023/01/27 01:25:30;;;;;;;14.80;13.27;;;4.00;99.90;;;;;;5012575;28;20050;-75
2023/01/27 01:27:55;;;;;;;13.82;12.38;;;4.00;99.90;;;;;;5010529;28;20036;-75
2023/01/27 01:30:24;;;;;;;15.55;12.43;;;3.90;99.90;;;;;;5015274;28;20480;-74
2023/01/27 01:32:51;;;;;;;13.05;11.77;;;3.90;99.90;;;;;;5015390;28;20038;-74
2023/01/27 01:35:17;;;;;;;15.93;13.18;;;4.00;99.90;;;;;;5012456;28;20045;-74
2023/01/27 01:37:43;;;;;;;13.98;11.40;;;4.00;99.90;;;;;;5012178;28;20046;-74
2023/01/27 01:40:11;;;;;;;17.75;13.30;;;4.00;99.90;;;;;;5010237;28;20088;-75
2023/01/27 01:42:49;;;;;;;14.95;13.20;;;4.00;99.90;;;;;;5011741;28;20052;-74
2023/01/27 01:45:30;;;;;;;12.27;10.98;;;4.00;99.90;;;;;;5006571;28;20116;-74
2023/01/27 01:48:22;;;;;;;12.90;10.98;;;4.00;99.90;;;;;;4995633;28;20044;-74
2023/01/27 01:51:21;;;;;;;15.03;11.87;;;3.90;99.90;;;;;;4997164;28;20077;-74
2023/01/27 01:54:00;;;;;;;13.10;10.38;;;3.90;99.90;;;;;;5007504;28;20046;-74
2023/01/27 01:56:50;;;;;;;12.35;11.00;;;3.90;99.90;;;;;;5010592;28;20417;-74
2023/01/27 01:59:21;;;;;;;11.30;10.10;;;3.90;99.90;;;;;;5010535;28;20046;-74
2023/01/27 02:01:47;;;;;;;10.32;9.32;;;3.90;99.90;;;;;;5011182;28;20092;-74
2023/01/27 02:04:22;;;;;;;10.88;9.40;;;3.90;99.90;;;;;;4994594;28;20054;-74
2023/01/27 02:07:02;;;;;;;11.10;8.85;;;3.90;99.90;;;;;;5012099;28;20396;-74
2023/01/27 02:09:28;;;;;;;8.70;7.88;;;3.90;99.90;;;;;;5014741;28;20072;-75
2023/01/27 02:11:54;;;;;;;9.35;8.27;;;3.90;99.90;;;;;;4995087;28;20435;-75
2023/01/27 02:14:20;;;;;;;9.20;7.43;;;3.90;99.90;;;;;;4993649;28;20388;-74
2023/01/27 02:16:46;;;;;;;8.65;6.70;;;4.00;99.90;;;;;;5011525;28;20040;-74
2023/01/27 02:19:48;;;;;;;10.07;7.03;;;4.00;99.90;;;;;;4995043;28;20121;-74
2023/01/27 02:22:25;;;;;;;8.02;7.22;;;4.00;99.90;;;;;;4978785;28;20104;-74
2023/01/27 02:24:58;;;;;;;9.02;7.40;;;4.00;99.90;;;;;;4996106;28;20038;-74
2023/01/27 02:27:23;;;;;;;;;;;4.00;99.90;;;;;;5009408;28;20370;-74
2023/01/27 02:29:49;;;;;;;9.65;6.95;;;4.00;99.90;;;;;;5015207;28;19925;-75
2023/01/27 02:32:23;;;;;;;7.25;6.13;;;4.00;99.90;;;;;;5001470;28;20034;-74
2023/01/27 02:34:49;;;;;;;7.70;6.90;;;4.00;99.90;;;;;;5011069;28;20491;-75
2023/01/27 02:37:15;;;;;;;8.02;6.88;;;4.00;99.90;;;;;;5018317;28;20129;-74
2023/01/27 02:39:43;;;;;;;7.57;6.88;;;4.00;99.90;;;;;;5024867;28;20124;-74
2023/01/27 02:42:13;;;;;;;10.60;8.25;;;4.00;99.90;;;;;;5011279;28;20488;-74
2023/01/27 02:44:38;;;;;;;9.77;8.52;;;4.00;99.90;;;;;;5015418;28;20543;-75
2023/01/27 02:47:04;;;;;;;9.43;8.52;;;4.00;99.90;;;;;;5022304;28;20046;-74
2023/01/27 02:49:29;;;;;;;11.85;8.85;;;4.00;99.90;;;;;;5029235;28;20452;-74
2023/01/27 02:51:55;;;;;;;10.75;9.60;;;4.00;99.90;;;;;;5010051;28;20038;-75
2023/01/27 02:54:29;;;;;;;11.38;10.20;;;4.00;99.90;;;;;;4992894;28;20408;-74
2023/01/27 02:56:54;;;;;;;11.65;9.82;;;4.00;99.90;;;;;;4994628;28;20161;-74
2023/01/27 02:59:20;;;;;;;12.90;9.65;;;4.00;99.90;;;;;;5014118;28;20083;-74
2023/01/27 03:01:45;;;;;;;10.50;9.50;;;4.00;99.90;;;;;;4991949;28;20052;-74
2023/01/27 03:04:11;;;;;;;11.95;10.07;;;3.90;99.90;;;;;;5009205;28;20033;-74
2023/01/27 03:06:37;;;;;;;11.60;9.70;;;4.00;99.90;;;;;;5021372;28;20037;-75
2023/01/27 03:09:04;;;;;;;11.07;9.88;;;4.00;99.90;;;;;;5011563;28;20073;-74
2023/01/27 03:14:14;;;;;;;10.80;9.70;;;4.00;99.90;;;;;;5010486;28;20050;-74
2023/01/27 03:19:25;;;;;;;10.32;9.10;;;3.90;99.90;;;;;;5018338;28;20524;-74
2023/01/27 03:21:52;;;;;;;10.13;9.05;;;3.90;99.90;;;;;;4983710;28;20527;-74
2023/01/27 03:24:18;;;;;;;9.88;8.63;;;4.00;99.90;;;;;;5010499;28;20566;-75
2023/01/27 03:26:43;;;;;;;8.57;7.68;;;3.90;99.90;;;;;;5010650;28;20044;-74
2023/01/27 03:31:53;;;;;;;8.30;7.25;;;4.00;99.90;;;;;;5010406;28;20049;-74
2023/01/27 03:34:19;;;;;;;9.70;6.97;;;3.90;99.90;;;;;;5010471;28;20041;-74
2023/01/27 03:47:44;;;;;;;9.20;5.30;;;4.00;99.90;;;;;;5008593;28;20128;-74
2023/01/27 03:50:18;;;;;;;5.97;4.40;;;4.00;99.90;;;;;;5009408;28;20284;-74
2023/01/27 03:53:01;;;;;;;4.50;4.10;;;4.00;99.90;;;;;;5010285;28;20042;-74
2023/01/27 03:55:31;;;;;;;4.03;3.63;;;4.10;99.90;;;;;;4985081;28;20526;-75
2023/01/27 03:58:04;;;;;;;4.88;3.72;;;4.10;99.90;;;;;;4992961;28;20132;-74
2023/01/27 04:00:31;;;;;;;3.53;3.22;;;4.10;99.90;;;;;;5009065;28;20183;-74
2023/01/27 04:08:25;;;;;;;4.50;2.97;;;4.20;99.90;;;;;;5003406;28;20096;-75
2023/01/27 04:11:53;;;;;;;5.70;3.50;;;4.20;99.90;;;;;;5009719;28;20512;-75
2023/01/27 04:13:36;;;;;;;4.05;2.75;;;4.20;99.90;;;;;;5054465;22;20027;-76
2023/01/27 04:16:02;;;;;;;4.78;3.25;;;4.20;99.90;;;;;;4997413;28;20040;-78
2023/01/27 04:18:28;;;;;;;3.35;2.72;;;4.20;99.90;;;;;;5004194;28;20046;-76
2023/01/27 04:20:53;;;;;;;3.30;2.90;;;4.20;99.90;;;;;;4998877;28;20091;-78
2023/01/27 04:23:19;;;;;;;4.07;3.03;;;4.20;99.90;;;;;;5009682;28;20402;-79
2023/01/27 04:25:46;;;;;;;5.15;3.30;;;4.20;99.90;;;;;;4997370;28;20515;-79
2023/01/27 04:28:12;;;;;;;3.80;3.08;;;4.20;99.90;;;;;;5005348;28;20046;-78
2023/01/27 04:30:37;;;;;;;4.55;3.45;;;4.20;99.90;;;;;;5012822;28;20040;-78
2023/01/27 04:33:04;;;;;;;3.65;3.00;;;4.20;99.90;;;;;;5010644;28;20033;-79
2023/01/27 04:35:30;;;;;;;4.22;3.22;;;4.20;99.90;;;;;;5009140;28;20044;-76
2023/01/27 04:37:55;;;;;;;4.07;3.08;;;4.20;99.90;;;;;;5008055;28;20366;-76
2023/01/27 04:40:21;;;;;;;3.50;2.80;;;4.20;99.90;;;;;;5007811;28;20099;-76
2023/01/27 04:42:47;;;;;;;3.28;2.97;;;4.20;99.90;;;;;;5013383;28;20045;-78
2023/01/27 04:45:12;;;;;;;4.63;3.28;;;4.20;99.90;;;;;;5020487;28;20041;-78
2023/01/27 04:47:39;;;;;;;3.45;3.15;;;4.20;99.90;;;;;;5021273;28;20048;-78
2023/01/27 04:50:05;;;;;;;3.60;3.30;;;4.20;99.90;;;;;;4998777;28;20037;-78
2023/01/27 04:52:30;;;;;;;3.72;3.13;;;4.20;99.90;;;;;;5004857;28;20040;-77
2023/01/27 04:54:56;;;;;;;3.38;3.08;;;4.20;99.90;;;;;;5016481;28;20041;-77
2023/01/27 04:57:22;;;;;;;3.65;3.08;;;4.20;99.90;;;;;;5016673;28;20081;-76
2023/01/27 04:59:48;;;;;;;4.80;3.47;;;4.20;99.90;;;;;;5033110;28;20041;-76
2023/01/27 05:02:14;;;;;;;3.75;2.80;;;4.10;99.90;;;;;;4997957;28;20037;-77
2023/01/27 05:04:40;;;;;;;4.82;3.28;;;4.20;99.90;;;;;;4995352;28;20488;-77
2023/01/27 05:07:06;;;;;;;3.30;2.53;;;4.20;99.90;;;;;;4999788;28;20061;-76
2023/01/27 05:09:31;;;;;;;3.08;2.78;;;4.20;99.90;;;;;;5005030;28;20124;-76
2023/01/27 05:11:57;;;;;;;3.17;2.78;;;4.10;99.90;;;;;;5012152;28;20045;-76
2023/01/27 05:14:24;;;;;;;3.72;3.33;;;4.10;99.90;;;;;;5010505;28;20037;-76
2023/01/27 05:16:50;;;;;;;3.75;3.20;;;4.10;99.90;;;;;;4994504;28;20064;-76
2023/01/27 05:19:16;;;;;;;4.43;3.05;;;4.10;99.90;;;;;;5008149;28;20045;-76
2023/01/27 05:21:42;;;;;;;3.85;3.25;;;4.00;99.90;;;;;;5012938;28;20048;-77
2023/01/27 05:24:09;;;;;;;4.25;3.10;;;4.00;99.90;;;;;;5010964;28;20120;-77
2023/01/27 05:26:35;;;;;;;3.47;2.90;;;4.00;99.90;;;;;;5019459;28;20037;-77
2023/01/27 05:29:01;;;;;;;3.92;3.00;;;4.00;99.90;;;;;;5019010;28;20127;-77
2023/01/27 05:31:30;;;;;;;2.90;2.58;;;4.00;99.90;;;;;;5001254;28;20069;-77
2023/01/27 05:33:58;;;;;;;4.00;2.90;;;3.90;99.90;;;;;;5005336;28;20179;-76
2023/01/27 05:36:25;;;;;;;3.67;2.90;;;3.90;99.90;;;;;;5007405;28;20033;-76
2023/01/27 05:38:52;;;;;;;4.35;3.25;;;3.90;99.90;;;;;;5018990;28;20041;-77
2023/01/27 05:41:19;;;;;;;3.75;2.83;;;3.90;99.90;;;;;;5002707;28;20037;-76
2023/01/27 05:43:47;;;;;;;4.05;3.08;;;3.90;99.90;;;;;;5008818;28;20083;-76
2023/01/27 05:46:17;;;;;;;3.30;3.00;;;3.90;99.90;;;;;;5014808;28;20095;-76
2023/01/27 05:48:45;;;;;;;4.70;2.67;;;3.90;99.90;;;;;;5018626;28;20033;-76
2023/01/27 05:51:12;;;;;;;4.10;2.83;;;3.80;99.90;;;;;;5010245;28;20040;-76
2023/01/27 05:53:38;;;;;;;3.75;2.78;;;3.90;99.90;;;;;;5008238;28;20144;-76
2023/01/27 05:56:04;;;;;;;3.65;3.13;;;3.80;99.90;;;;;;4998493;28;20515;-76
2023/01/27 05:58:31;;;;;;;3.63;2.88;;;3.80;99.90;;;;;;5009088;28;20045;-76
2023/01/27 06:01:09;;;;;;;6.68;3.00;;;3.80;99.90;;;;;;5009204;28;20037;-76
2023/01/27 06:03:35;;;;;;;4.18;2.90;;;3.80;99.90;;;;;;5014510;28;20067;-76
2023/01/27 06:06:02;;;;;;;4.97;3.47;;;3.90;99.90;;;;;;5009388;28;20044;-76
2023/01/27 06:08:28;;;;;;;4.88;3.10;;;3.70;99.90;;;;;;4998194;28;20183;-76
2023/01/27 06:10:54;;;;;;;4.80;3.45;;;3.80;99.90;;;;;;5006696;28;20124;-76
2023/01/27 06:13:23;;;;;;;6.07;3.65;;;3.80;99.90;;;;;;5000715;28;20123;-76
2023/01/27 06:15:50;;;;;;;4.88;3.05;;;3.70;99.90;;;;;;5012364;28;20049;-76
2023/01/27 06:18:17;;;;;;;5.13;3.00;;;3.70;99.90;;;;;;4997144;28;20038;-76
2023/01/27 06:20:43;;;;;;;4.28;2.60;;;3.70;99.90;;;;;;5003738;28;20155;-76
2023/01/27 06:23:10;;;;;;;4.25;2.80;;;3.70;99.90;;;;;;4997509;28;20046;-76
2023/01/27 06:25:42;;;;;;;5.78;3.03;;;3.70;99.90;;;;;;5008689;28;20164;-76
2023/01/27 06:28:08;;;;;;;5.05;2.58;;;3.70;99.90;;;;;;5005940;28;20040;-76
2023/01/27 06:30:36;;;;;;;3.28;2.42;;;3.70;99.90;;;;;;5013623;28;20124;-77
2023/01/27 06:33:02;;;;;;;2.83;2.53;;;3.70;99.90;;;;;;4988528;28;20039;-76
2023/01/27 06:35:29;;;;;;;4.60;2.97;;;3.70;99.90;;;;;;5006690;28;20045;-76
2023/01/27 06:37:57;;;;;;;5.22;2.90;;;3.70;99.90;;;;;;5010522;28;20048;-76
2023/01/27 06:40:24;;;;;;;4.75;2.40;;;3.70;99.90;;;;;;5015791;28;20071;-76
2023/01/27 06:42:50;;;;;;;5.90;3.22;;;3.70;99.90;;;;;;5002845;28;20041;-76
2023/01/27 06:45:16;;;;;;;4.88;3.20;;;3.70;99.90;;;;;;5000325;28;20037;-76
2023/01/27 06:47:42;;;;;;;5.22;3.85;;;3.70;99.90;;;;;;5000922;28;20037;-76
2023/01/27 06:50:09;;;;;;;5.90;4.15;;;3.60;99.90;;;;;;5014707;28;20048;-76
2023/01/27 06:52:36;;;;;;;4.50;3.55;;;3.60;99.90;;;;;;4996738;28;20091;-76
2023/01/27 06:55:03;;;;;;;8.18;3.80;;;3.70;99.90;;;;;;4999033;28;20598;-76
2023/01/27 06:57:28;;;;;;;5.05;3.45;;;3.60;99.90;;;;;;5017274;28;20051;-76
2023/01/27 06:59:55;;;;;;;6.10;3.70;;;3.60;99.90;;;;;;5015636;28;20037;-77
2023/01/27 07:02:21;;;;;;;7.45;5.00;;;3.60;99.90;;;;;;4997586;28;20041;-77
2023/01/27 07:04:46;;;;;;;5.93;3.50;;;3.50;99.90;;;;;;5003357;28;20102;-76
2023/01/27 07:07:12;;;;;;;5.10;3.60;;;3.60;99.90;;;;;;5008959;28;20033;-76
2023/01/27 07:09:39;;;;;;;5.43;3.33;;;3.50;99.90;;;;;;4993247;28;20033;-76
2023/01/27 07:12:04;;;;;;;4.20;3.78;;;3.50;99.90;;;;;;5004786;28;20080;-77
2023/01/27 07:14:30;;;;;;;5.22;3.70;;;3.50;99.90;;;;;;5011645;28;20069;-76
2023/01/27 07:16:56;;;;;;;5.25;3.28;;;3.50;99.90;;;;;;5015582;28;20040;-76
2023/01/27 07:19:22;;;;;;;5.03;3.78;;;3.50;99.90;;;;;;5017656;28;20045;-76
2023/01/27 07:21:48;;;;;;;4.43;3.70;;;3.40;99.90;;;;;;5002967;28;20041;-77
2023/01/27 07:24:14;;;;;;;5.65;4.10;;;3.40;99.90;;;;;;4991895;28;20407;-79
2023/01/27 07:26:40;;;;;;;5.35;3.63;;;3.30;99.90;;;;;;5006686;28;20041;-77
2023/01/27 07:29:08;;;;;;;5.32;4.28;;;3.30;99.90;;;;;;5016421;28;20566;-77
2023/01/27 07:31:34;;;;;;;5.35;4.20;;;3.30;99.90;;;;;;5010391;28;20487;-78
2023/01/27 07:34:00;;;;;;;5.90;4.28;;;3.30;99.90;;;;;;5013825;28;20045;-78
2023/01/27 07:36:26;;;;;;;7.15;4.63;;;3.30;99.90;;;;;;4996098;28;20041;-78
2023/01/27 07:38:53;;;;;;;7.05;4.80;;;3.30;99.90;;;;;;4996296;28;20114;-79
2023/01/27 07:41:23;;;;;;;6.13;4.55;;;3.30;99.90;;;;;;4997639;28;20048;-79
2023/01/27 07:43:50;;;;;;;6.45;4.38;;;3.30;99.90;;;;;;4997697;28;20037;-79
2023/01/27 07:46:16;;;;;;;6.72;5.00;;;3.30;99.90;;;;;;4997413;28;20496;-78
2023/01/27 07:48:43;;;;;;;6.82;5.28;;;3.30;99.90;;;;;;4999897;28;20136;-78
2023/01/27 07:51:15;;;;;;;7.30;5.10;;;3.30;99.90;;;;;;5006212;28;20034;-79
2023/01/27 07:53:46;;;;;;;6.67;5.20;;;3.30;99.90;;;;;;5017049;28;20063;-79
2023/01/27 07:56:15;;;;;;;6.85;5.95;;;3.30;99.90;;;;;;5017070;28;20491;-79
2023/01/27 07:58:44;;;;;;;6.60;5.90;;;3.30;99.90;;;;;;4995139;28;20402;-79
2023/01/27 08:01:11;;;;;;;8.25;6.28;;;3.30;99.90;;;;;;4998596;28;20510;-76
2023/01/27 08:03:38;;;;;;;7.63;6.57;;;3.20;99.90;;;;;;4998670;28;20572;-77
2023/01/27 08:06:06;;;;;;;7.63;5.97;;;3.30;99.90;;;;;;4999650;28;20044;-78
2023/01/27 08:08:32;;;;;;;7.88;6.40;;;3.20;99.90;;;;;;4998485;28;20549;-78
2023/01/27 08:11:13;;;;;;;9.65;6.50;;;3.30;99.90;;;;;;4997197;28;20125;-78
2023/01/27 08:13:39;;;;;;;8.07;6.15;;;3.30;99.90;;;;;;5008682;28;20037;-78
2023/01/27 08:16:08;;;;;;;9.20;6.78;;;3.30;99.90;;;;;;4994024;28;20037;-77
2023/01/27 08:18:34;;;;;;;6.72;6.03;;;3.20;99.90;;;;;;5010310;28;20051;-77
2023/01/27 08:21:02;;;;;;;10.07;6.18;;;3.20;99.90;;;;;;5020874;28;20450;-78
2023/01/27 08:23:28;;;;;;;6.32;5.72;;;3.20;99.90;;;;;;5020458;28;20084;-77
2023/01/27 08:25:59;;;;;;;8.00;5.80;;;3.30;99.90;;;;;;5001681;28;20069;-77
2023/01/27 08:28:27;;;;;;;7.15;5.93;;;3.20;99.90;;;;;;5000609;28;20033;-77
2023/01/27 08:31:05;;;;;;;8.50;6.28;;;3.20;99.90;;;;;;4994680;28;20431;-78
2023/01/27 08:33:31;;;;;;;7.55;6.00;;;3.30;99.90;;;;;;5004932;28;20515;-78
2023/01/27 08:36:11;;;;;;;8.05;5.85;;;3.30;99.90;;;;;;5000150;28;20073;-77
2023/01/27 08:38:37;;;;;;;8.55;5.97;;;3.40;99.90;;;;;;5000440;28;20191;-78
2023/01/27 08:41:08;;;;;;;9.30;5.82;;;3.50;99.90;;;;;;4990069;28;20160;-77
2023/01/27 08:43:35;;;;;;;8.13;5.22;;;3.50;99.90;;;;;;4996738;28;20065;-79
2023/01/27 08:46:02;;;;;;;7.55;5.13;;;3.50;99.90;;;;;;4989744;28;20034;-78
2023/01/27 08:48:30;;;;;;;8.15;4.93;;;3.50;99.90;;;;;;5012933;28;20037;-78
2023/01/27 08:50:57;;;;;;;5.97;5.10;;;3.60;99.90;;;;;;5022513;28;20073;-78
2023/01/27 08:53:24;;;;;;;6.68;5.03;;;3.70;99.90;;;;;;5008455;28;20041;-77
2023/01/27 08:55:56;;;;;;;6.10;4.72;;;3.70;99.90;;;;;;4995708;28;20037;-79
2023/01/27 08:58:23;;;;;;;7.25;4.55;;;3.70;99.90;;;;;;5001781;28;20044;-79
2023/01/27 09:01:02;;;;;;;8.93;5.05;;;3.80;99.90;;;;;;5001503;28;20037;-80
2023/01/27 09:03:37;;;;;;;6.75;4.68;;;3.90;99.90;;;;;;4998486;28;20044;-80
2023/01/27 09:06:12;;;;;;;5.93;4.28;;;3.90;99.90;;;;;;5032178;28;20061;-80
2023/01/27 09:09:08;;;;;;;6.00;4.18;;;3.90;99.90;;;;;;5000398;28;20476;-81
2023/01/27 09:12:02;;;;;;;6.32;4.18;;;4.00;99.90;;;;;;4992229;28;20483;-81
2023/01/27 09:14:39;;;;;;;5.93;4.47;;;4.20;99.90;;;;;;5014408;28;20045;-81
2023/01/27 09:17:16;;;;;;;5.50;4.00;;;4.40;99.90;;;;;;4986991;28;20064;-81
2023/01/27 09:19:54;;;;;;;5.15;4.00;;;4.40;99.90;;;;;;4986306;28;20038;-81
2023/01/27 09:22:43;;;;;;;4.65;4.00;;;4.50;99.90;;;;;;5002024;28;20073;-81
2023/01/27 09:25:13;;;;;;;;;;;4.50;99.90;;;;;;5005691;28;20034;-81
2023/01/27 09:27:40;;;;;;;7.22;4.68;;;4.60;99.90;;;;;;5016751;28;19917;-81
2023/01/27 09:30:10;;;;;;;5.18;4.22;;;4.60;99.90;;;;;;5010124;28;20049;-80
2023/01/27 09:32:40;;;;;;;5.68;4.53;;;4.70;99.90;;;;;;5004464;28;20052;-81
2023/01/27 09:35:15;;;;;;;6.95;4.28;;;4.70;99.90;;;;;;5005079;28;20041;-81
2023/01/27 09:37:48;;;;;;;6.28;4.40;;;4.80;99.90;;;;;;5001939;28;20042;-81
2023/01/27 09:40:40;;;;;;;;;;;4.80;99.90;;;;;;5002597;28;20029;-81
2023/01/27 09:43:28;;;;;;;6.10;4.43;;;4.80;99.90;;;;;;5002217;28;19917;-81
2023/01/27 09:46:04;;;;;;;6.28;4.70;;;4.90;99.90;;;;;;5002671;28;20099;-81
2023/01/27 09:48:51;;;;;;;5.75;4.85;;;4.90;99.90;;;;;;5004953;28;20052;-81
2023/01/27 09:51:30;;;;;;;6.25;4.57;;;4.90;99.90;;;;;;4994857;28;20068;-81
2023/01/27 09:54:10;;;;;;;5.60;4.45;;;4.80;99.90;;;;;;5002133;28;20087;-81
2023/01/27 09:56:45;;;;;;;7.00;4.80;;;5.00;99.90;;;;;;5003333;28;20029;-81
2023/01/27 09:59:42;;;;;;;5.80;4.05;;;4.90;99.90;;;;;;5005033;28;20434;-81
2023/01/27 10:02:14;;;;;;;6.85;4.57;;;4.90;99.90;;;;;;5002806;28;20033;-81
2023/01/27 10:04:54;;;;;;;5.33;4.30;;;4.90;99.90;;;;;;5003847;28;20063;-81
2023/01/27 10:07:41;;;;;;;6.53;5.00;;;4.90;99.90;;;;;;4991389;28;20041;-81
2023/01/27 10:10:43;;;;;;;6.50;4.15;;;4.90;99.90;;;;;;4996817;28;20046;-81
2023/01/27 10:16:09;;;;;;;5.05;4.55;;;4.90;99.90;;;;;;5090282;22;20049;-71
2023/01/27 10:19:00;;;;;;;6.47;5.20;;;4.80;99.90;;;;;;5028878;28;20037;-72
2023/01/27 10:21:44;;;;;;;5.15;4.40;;;4.80;99.90;;;;;;5035094;28;20418;-72
2023/01/27 10:24:25;;;;;;;4.85;4.40;;;4.80;99.90;;;;;;5020138;28;20462;-71
2023/01/27 10:26:55;;;;;;;4.82;4.32;;;4.80;99.90;;;;;;5038286;28;20086;-71
2023/01/27 10:29:35;;;;;;;7.22;4.97;;;4.80;99.90;;;;;;5036114;28;20483;-71
2023/01/27 10:32:26;;;;;;;6.55;5.07;;;4.80;99.90;;;;;;5034462;28;20037;-73
2023/01/27 10:35:16;;;;;;;7.68;5.60;;;4.80;99.90;;;;;;5007395;28;20114;-73
2023/01/27 10:38:35;;;;;;;4.90;4.40;;;4.80;99.90;;;;;;5026824;28;20045;-72
2023/01/27 10:41:19;;;;;;;7.70;4.88;;;4.80;99.90;;;;;;4954112;28;20074;-73
2023/01/27 10:44:15;;;;;;;6.05;4.78;;;4.80;99.90;;;;;;5018909;28;20407;-74
2023/01/27 10:47:00;;;;;;;5.68;4.93;;;4.70;99.90;;;;;;5038729;28;20442;-74
2023/01/27 10:49:36;;;;;;;5.28;4.78;;;4.70;99.90;;;;;;5029616;28;20041;-72
2023/01/27 10:52:04;;;;;;;5.47;4.57;;;4.70;99.90;;;;;;5035451;28;20483;-71
2023/01/27 10:54:32;;;;;;;5.20;4.35;;;4.70;99.90;;;;;;5040836;28;20487;-72
2023/01/27 10:57:06;;;;;;;3.95;3.50;;;4.70;99.90;;;;;;5025598;28;20041;-73
2023/01/27 10:59:46;;;;;;;4.00;3.60;;;4.60;99.90;;;;;;5041149;28;20045;-72
2023/01/27 11:02:24;;;;;;;3.78;3.08;;;4.60;99.90;;;;;;5016568;28;20045;-72
2023/01/27 11:04:57;;;;;;;4.53;3.33;;;4.60;99.90;;;;;;5022665;28;20131;-72
2023/01/27 11:07:24;;;;;;;5.18;3.60;;;4.60;99.90;;;;;;5025504;28;20121;-71
2023/01/27 11:10:07;;;;;;;3.80;3.40;;;4.60;99.90;;;;;;5036422;28;20048;-72
2023/01/27 11:12:38;;;;;;;;;;;4.50;99.90;;;;;;5037270;28;20068;-72
2023/01/27 11:15:34;;;;;;;4.60;3.65;;;4.50;99.90;;;;;;5037983;28;19916;-73
2023/01/27 11:18:22;;;;;;;4.70;3.83;;;4.50;99.90;;;;;;5019800;28;20048;-72
2023/01/27 11:21:14;;;;;;;4.07;3.55;;;4.40;99.90;;;;;;5050122;28;20438;-73
2023/01/27 11:23:44;;;;;;;4.90;4.40;;;4.40;99.90;;;;;;5033425;28;20379;-71
2023/01/27 11:26:31;;;;;;;5.82;4.07;;;4.40;99.90;;;;;;5030438;28;20044;-72
2023/01/27 11:29:36;;;;;;;4.18;3.53;;;4.40;99.90;;;;;;5035916;28;20044;-73
2023/01/27 11:32:20;;;;;;;5.00;3.63;;;4.40;99.90;;;;;;5040365;28;20059;-71
2023/01/27 11:35:08;;;;;;;4.47;3.55;;;4.40;99.90;;;;;;5042738;28;20045;-72
2023/01/27 11:37:40;;;;;;;4.75;3.80;;;4.50;99.90;;;;;;5037976;28;20391;-72
2023/01/27 11:40:15;;;;;;;3.60;3.30;;;4.50;99.90;;;;;;5047408;28;20041;-72
2023/01/27 11:42:42;;;;;;;4.35;3.53;;;4.50;99.90;;;;;;5032932;28;20094;-72
2023/01/27 11:45:13;;;;;;;3.85;3.45;;;4.40;99.90;;;;;;5048416;28;20394;-72
2023/01/27 11:47:40;;;;;;;4.60;3.80;;;4.40;99.90;;;;;;5041824;28;20055;-72
2023/01/27 11:50:12;;;;;;;4.13;3.45;;;4.40;99.90;;;;;;5036885;28;20041;-72
2023/01/27 11:52:37;;;;;;;4.43;3.45;;;4.40;99.90;;;;;;5039686;28;20475;-72
2023/01/27 11:55:20;;;;;;;4.78;3.22;;;4.40;99.90;;;;;;5011999;28;20033;-72
2023/01/27 11:58:01;;;;;;;4.45;3.20;;;4.40;99.90;;;;;;5040216;28;20591;-71
2023/01/27 12:00:51;;;;;;;3.55;3.08;;;4.50;99.90;;;;;;5048363;28;20123;-71
2023/01/27 12:03:38;;;;;;;4.22;3.53;;;4.50;99.90;;;;;;5036110;28;20441;-71
2023/01/27 12:06:13;;;;;;;4.07;3.47;;;4.50;99.90;;;;;;5044835;28;20088;-72
2023/01/27 12:08:44;;;;;;;4.57;3.60;;;4.50;99.90;;;;;;5044381;28;20120;-72
2023/01/27 12:11:21;;;;;;;3.55;3.17;;;4.50;99.90;;;;;;5019923;28;20564;-72
2023/01/27 12:13:52;;;;;;;4.18;3.50;;;4.50;99.90;;;;;;5040266;28;20556;-71
2023/01/27 12:16:18;;;;;;;3.67;3.33;;;4.50;99.90;;;;;;5036947;28;20045;-71
2023/01/27 12:18:55;;;;;;;5.00;4.25;;;4.60;99.90;;;;;;5043580;28;20069;-71
2023/01/27 12:21:32;;;;;;;4.97;4.20;;;4.60;99.90;;;;;;5017354;28;20080;-71
2023/01/27 12:23:58;;;;;;;4.28;3.80;;;4.60;99.90;;;;;;5017222;28;20058;-71
2023/01/27 12:26:32;;;;;;;5.30;3.95;;;4.70;99.90;;;;;;5017033;28;20095;-71
2023/01/27 12:29:01;;;;;;;3.50;3.20;;;4.60;99.90;;;;;;5042462;28;20068;-73
2023/01/27 12:31:41;;;;;;;5.95;4.03;;;4.60;99.90;;;;;;5040552;28;20406;-72
2023/01/27 12:34:33;;;;;;;4.00;3.55;;;4.60;99.90;;;;;;5045294;28;20033;-73
2023/01/27 12:37:00;;;;;;;4.68;3.97;;;4.60;99.90;;;;;;5045695;28;20503;-72
2023/01/27 12:39:40;;;;;;;4.68;3.70;;;4.50;99.90;;;;;;5046762;28;20084;-76
2023/01/27 12:42:39;;;;;;;5.85;4.18;;;4.50;99.90;;;;;;5053186;28;20612;-73
2023/01/27 12:45:29;;;;;;;4.88;4.18;;;4.50;99.90;;;;;;5044813;28;20091;-72
2023/01/27 12:47:56;;;;;;;4.72;3.55;;;4.50;99.90;;;;;;5020943;28;20236;-74
2023/01/27 12:50:25;;;;;;;4.32;3.72;;;4.40;99.90;;;;;;5043707;28;20033;-73
2023/01/27 12:53:04;;;;;;;4.63;3.88;;;4.40;99.90;;;;;;5035131;28;20406;-73
2023/01/27 12:55:32;;;;;;;4.85;3.80;;;4.40;99.90;;;;;;5043279;28;20045;-73
2023/01/27 12:57:59;;;;;;;3.97;3.50;;;4.40;99.90;;;;;;5046439;28;20128;-73
2023/01/27 13:00:25;;;;;;;4.18;3.45;;;4.50;99.90;;;;;;5035295;28;20052;-73
2023/01/27 13:02:52;;;;;;;5.47;4.40;;;4.50;99.90;;;;;;5043369;28;20032;-73
2023/01/27 13:05:18;;;;;;;5.35;4.00;;;4.50;99.90;;;;;;5043658;28;20463;-73
2023/01/27 13:07:51;;;;;;;4.88;4.10;;;4.50;99.90;;;;;;5041525;28;20060;-73
2023/01/27 13:10:24;;;;;;;6.13;4.20;;;4.50;99.90;;;;;;5043862;28;20037;-73
2023/01/27 13:12:56;;;;;;;3.78;3.10;;;4.50;99.90;;;;;;5041556;28;20561;-73
2023/01/27 13:15:24;;;;;;;3.97;3.33;;;4.40;99.90;;;;;;5035850;28;20045;-73
2023/01/27 13:17:52;;;;;;;3.05;2.78;;;4.50;99.90;;;;;;5035736;28;20290;-73
2023/01/27 13:20:18;;;;;;;2.70;2.50;;;4.50;99.90;;;;;;5044296;28;20106;-73
2023/01/27 13:22:47;;;;;;;2.90;2.60;;;4.50;99.90;;;;;;5040175;28;20495;-73
2023/01/27 13:25:22;;;;;;;3.65;2.70;;;4.50;99.90;;;;;;5042084;28;20037;-73
2023/01/27 13:27:50;;;;;;;3.00;2.70;;;4.50;99.90;;;;;;5026939;28;20124;-73
2023/01/27 13:30:34;;;;;;;2.90;2.60;;;4.50;99.90;;;;;;5035803;28;20080;-73
2023/01/27 13:33:10;;;;;;;3.90;3.50;;;4.50;99.90;;;;;;5046942;28;20029;-73
2023/01/27 13:35:43;;;;;;;4.60;2.88;;;4.50;99.90;;;;;;5046264;28;20037;-73
2023/01/27 13:38:25;;;;;;;3.05;2.72;;;4.50;99.90;;;;;;5043592;28;20048;-73
2023/01/27 13:40:50;;;;;;;3.20;2.90;;;4.50;99.90;;;;;;5047125;28;20033;-73
2023/01/27 13:43:34;;;;;;;5.70;3.72;;;4.40;99.90;;;;;;5037520;28;20483;-73
2023/01/27 13:46:26;;;;;;;3.60;3.30;;;4.40;99.90;;;;;;5038719;28;20064;-73
2023/01/27 13:49:01;;;;;;;4.47;3.95;;;4.40;99.90;;;;;;5051597;28;20045;-73
2023/01/27 13:51:29;;;;;;;4.07;3.38;;;4.40;99.90;;;;;;5051899;28;20037;-73
2023/01/27 13:54:00;;;;;;;3.47;2.83;;;4.40;99.90;;;;;;5040048;28;20484;-73
2023/01/27 13:56:44;;;;;;;4.10;3.67;;;4.40;99.90;;;;;;5041373;28;20124;-73